createdAt,value
2018-12-25T00:00:15.544Z,-7.49
2018-12-25T00:02:48.345Z,-7.62
2018-12-25T00:05:21.404Z,-7.38
2018-12-25T00:07:54.418Z,-7.29
2018-12-25T00:10:27.730Z,-7.41
2018-12-25T00:13:01.019Z,-7.36
2018-12-25T00:15:34.279Z,-7.45
2018-12-25T00:18:07.800Z,-7.38
2018-12-25T00:20:40.946Z,-7.43
2018-12-25T00:23:14.098Z,-7.54
2018-12-25T00:25:47.215Z,-7.61
2018-12-25T00:28:20.326Z,-7.57
2018-12-25T00:30:53.116Z,-7.40
2018-12-25T00:33:26.545Z,-7.40
2018-12-25T00:35:59.826Z,-7.57
2018-12-25T00:38:32.811Z,-7.53
2018-12-25T00:41:05.825Z,-7.62
2018-12-25T00:43:39.248Z,-7.67
2018-12-25T00:46:12.536Z,-7.78
2018-12-25T00:48:45.433Z,-7.84
2018-12-25T00:51:18.327Z,-7.86
2018-12-25T00:53:51.271Z,-7.94
2018-12-25T00:56:24.669Z,-8.07
2018-12-25T00:58:57.917Z,-8.02
2018-12-25T01:01:31.063Z,-8.06
2018-12-25T01:04:04.084Z,-8.01
2018-12-25T01:06:37.111Z,-7.90
2018-12-25T01:09:13.395Z,-7.92
2018-12-25T01:11:46.726Z,-7.80
2018-12-25T01:14:19.894Z,-7.80
2018-12-25T01:16:54.034Z,-8.12
2018-12-25T01:19:27.035Z,-7.90
2018-12-25T01:22:00.116Z,-7.71
2018-12-25T01:24:32.981Z,-7.70
2018-12-25T01:27:06.142Z,-7.65
2018-12-25T01:29:39.325Z,-7.93
2018-12-25T01:32:12.543Z,-7.96
2018-12-25T01:34:45.521Z,-7.96
2018-12-25T01:37:18.438Z,-7.91
2018-12-25T01:39:51.504Z,-7.79
2018-12-25T01:42:24.659Z,-7.56
2018-12-25T01:45:00.322Z,-7.85
2018-12-25T01:47:32.308Z,-7.66
2018-12-25T01:50:05.537Z,-7.76
2018-12-25T01:52:38.399Z,-7.83
2018-12-25T01:55:11.324Z,-7.74
2018-12-25T01:57:44.408Z,-7.71
2018-12-25T02:00:17.300Z,-7.61
2018-12-25T02:02:50.689Z,-7.51
2018-12-25T02:05:23.584Z,-7.38
2018-12-25T02:07:56.731Z,-7.26
2018-12-25T02:10:29.730Z,-7.40
2018-12-25T02:13:03.318Z,-7.36
2018-12-25T02:15:36.378Z,-7.03
2018-12-25T02:18:10.163Z,-7.66
2018-12-25T02:20:43.287Z,-7.51
2018-12-25T02:23:16.548Z,-7.44
2018-12-25T02:25:49.720Z,-7.30
2018-12-25T02:28:22.735Z,-7.02
2018-12-25T02:30:55.687Z,-7.35
2018-12-25T02:33:28.692Z,-7.31
2018-12-25T02:36:02.890Z,-7.12
2018-12-25T02:38:37.048Z,-7.20
2018-12-25T02:41:11.414Z,-7.47
2018-12-25T02:43:45.912Z,-7.27
2018-12-25T02:46:20.053Z,-7.21
2018-12-25T02:48:54.138Z,-6.69
2018-12-25T02:51:28.615Z,-6.38
2018-12-25T02:54:01.942Z,-6.31
2018-12-25T02:56:35.841Z,-6.47
2018-12-25T02:59:09.437Z,-6.61
2018-12-25T03:02:01.931Z,-6.54
2018-12-25T03:04:35.033Z,-6.43
2018-12-25T03:07:08.334Z,-6.29
2018-12-25T03:09:41.737Z,-6.01
2018-12-25T03:12:14.889Z,-6.23
2018-12-25T03:14:48.409Z,-6.19
2018-12-25T03:17:21.586Z,-6.52
2018-12-25T03:19:59.785Z,-5.85
2018-12-25T03:22:28.603Z,-5.60
2018-12-25T03:25:01.670Z,-5.48
2018-12-25T03:27:34.565Z,-5.50
2018-12-25T03:30:07.946Z,-5.47
2018-12-25T03:32:41.009Z,-5.85
2018-12-25T03:35:14.762Z,-5.82
2018-12-25T03:37:47.709Z,-5.93
2018-12-25T03:40:20.841Z,-5.78
2018-12-25T03:42:54.950Z,-5.63
2018-12-25T03:45:28.188Z,-5.94
2018-12-25T03:48:01.457Z,-5.72
2018-12-25T03:50:34.514Z,-5.99
2018-12-25T03:53:07.636Z,-6.04
2018-12-25T03:55:41.858Z,-5.82
2018-12-25T03:58:14.822Z,-5.60
2018-12-25T04:00:47.774Z,-5.85
2018-12-25T04:03:20.997Z,-5.49
2018-12-25T04:05:54.019Z,-5.73
2018-12-25T04:08:27.091Z,-5.41
2018-12-25T04:11:00.151Z,-5.26
2018-12-25T04:13:33.169Z,-5.03
2018-12-25T04:16:06.568Z,-5.63
2018-12-25T04:18:39.542Z,-5.81
2018-12-25T04:21:12.800Z,-5.46
2018-12-25T04:23:45.833Z,-5.75
2018-12-25T04:26:18.842Z,-5.53
2018-12-25T04:28:51.602Z,-5.69
2018-12-25T04:31:24.752Z,-5.69
2018-12-25T04:33:58.537Z,-5.63
2018-12-25T04:36:32.310Z,-5.75
2018-12-25T04:39:06.282Z,-5.25
2018-12-25T04:41:39.203Z,-5.04
2018-12-25T04:44:12.699Z,-5.21
2018-12-25T04:46:46.007Z,-5.31
2018-12-25T04:49:19.117Z,-5.16
2018-12-25T04:51:52.171Z,-5.35
2018-12-25T04:54:25.270Z,-5.43
2018-12-25T04:56:58.660Z,-5.37
2018-12-25T04:59:31.898Z,-5.31
2018-12-25T05:02:04.911Z,-5.46
2018-12-25T05:04:37.915Z,-5.18
2018-12-25T05:07:11.039Z,-5.46
2018-12-25T05:09:44.019Z,-5.51
2018-12-25T05:12:17.034Z,-5.29
2018-12-25T05:14:50.094Z,-5.32
2018-12-25T05:17:23.711Z,-5.41
2018-12-25T05:19:56.820Z,-5.53
2018-12-25T05:22:29.794Z,-5.62
2018-12-25T05:25:02.871Z,-5.52
2018-12-25T05:27:35.729Z,-5.68
2018-12-25T05:30:09.374Z,-5.74
2018-12-25T05:32:42.676Z,-5.50
2018-12-25T05:35:16.064Z,-5.55
2018-12-25T05:37:50.021Z,-5.39
2018-12-25T05:40:23.563Z,-5.33
2018-12-25T05:42:56.584Z,-5.63
2018-12-25T05:45:29.713Z,-5.96
2018-12-25T05:48:02.515Z,-6.13
2018-12-25T05:50:35.571Z,-6.03
2018-12-25T05:53:08.548Z,-5.84
2018-12-25T05:55:41.564Z,-5.91
2018-12-25T05:58:14.468Z,-6.06
2018-12-25T06:00:52.502Z,-6.60
2018-12-25T06:03:25.393Z,-6.51
2018-12-25T06:05:59.482Z,-6.42
2018-12-25T06:08:32.795Z,-6.60
2018-12-25T06:11:06.029Z,-6.68
2018-12-25T06:13:39.359Z,-6.54
2018-12-25T06:16:12.480Z,-6.41
2018-12-25T06:18:45.499Z,-6.49
2018-12-25T06:21:18.432Z,-6.78
2018-12-25T06:23:51.755Z,-6.67
2018-12-25T06:26:24.908Z,-6.82
2018-12-25T06:28:57.986Z,-6.76
2018-12-25T06:31:31.140Z,-6.78
2018-12-25T06:34:04.375Z,-6.88
2018-12-25T06:36:37.474Z,-7.09
2018-12-25T06:39:10.485Z,-6.98
2018-12-25T06:41:43.551Z,-7.17
2018-12-25T06:44:16.566Z,-7.18
2018-12-25T06:46:49.715Z,-7.42
2018-12-25T06:49:22.802Z,-7.50
2018-12-25T06:51:55.878Z,-7.66
2018-12-25T06:54:28.906Z,-7.70
2018-12-25T06:57:01.911Z,-7.67
2018-12-25T06:59:34.812Z,-7.76
2018-12-25T07:02:07.830Z,-7.82
2018-12-25T07:04:41.108Z,-8.04
2018-12-25T07:07:14.081Z,-7.80
2018-12-25T07:09:46.939Z,-7.93
2018-12-25T07:12:19.770Z,-7.79
2018-12-25T07:14:52.954Z,-8.07
2018-12-25T07:17:26.532Z,-8.05
2018-12-25T07:19:59.181Z,-8.04
2018-12-25T07:22:32.319Z,-8.11
2018-12-25T07:25:05.340Z,-8.39
2018-12-25T07:27:38.986Z,-8.69
2018-12-25T07:30:12.424Z,-8.70
2018-12-25T07:32:45.396Z,-8.87
2018-12-25T07:35:18.422Z,-9.08
2018-12-25T07:37:51.417Z,-9.16
2018-12-25T07:40:24.189Z,-9.08
2018-12-25T07:42:57.294Z,-9.15
2018-12-25T07:45:30.810Z,-9.41
2018-12-25T07:48:03.774Z,-9.51
2018-12-25T07:50:36.640Z,-9.55
2018-12-25T07:53:09.653Z,-9.85
2018-12-25T07:55:42.842Z,-9.81
2018-12-25T07:58:15.838Z,-10.01
2018-12-25T08:00:49.025Z,-10.19
2018-12-25T08:03:30.683Z,-10.47
2018-12-25T08:06:03.854Z,-10.53
2018-12-25T08:08:37.037Z,-10.36
2018-12-25T08:11:09.980Z,-10.36
2018-12-25T08:13:43.177Z,-10.29
2018-12-25T08:16:16.157Z,-10.52
2018-12-25T08:18:49.119Z,-10.41
2018-12-25T08:21:29.055Z,-10.68
2018-12-25T08:23:56.491Z,-10.64
2018-12-25T08:26:29.640Z,-10.61
2018-12-25T08:29:02.546Z,-10.74
2018-12-25T08:31:36.449Z,-10.66
2018-12-25T08:34:09.917Z,-11.10
2018-12-25T08:36:43.119Z,-11.12
2018-12-25T08:39:15.864Z,-10.97
2018-12-25T08:41:48.873Z,-11.32
2018-12-25T08:44:21.835Z,-11.25
2018-12-25T08:46:54.744Z,-11.26
2018-12-25T08:49:27.730Z,-11.17
2018-12-25T08:52:00.893Z,-11.24
2018-12-25T08:54:33.984Z,-11.34
2018-12-25T08:57:06.794Z,-11.31
2018-12-25T08:59:39.724Z,-11.51
2018-12-25T09:02:12.860Z,-11.66
2018-12-25T09:04:45.880Z,-11.81
2018-12-25T09:07:18.907Z,-11.70
2018-12-25T09:09:52.061Z,-11.90
2018-12-25T09:12:25.114Z,-12.04
2018-12-25T09:14:58.132Z,-12.11
2018-12-25T09:17:30.952Z,-12.09
2018-12-25T09:20:03.885Z,-12.05
2018-12-25T09:22:36.901Z,-12.01
2018-12-25T09:25:10.787Z,-12.24
2018-12-25T09:27:44.317Z,-12.35
2018-12-25T09:30:17.394Z,-12.22
2018-12-25T09:32:50.843Z,-12.23
2018-12-25T09:35:24.715Z,-12.23
2018-12-25T09:37:57.774Z,-12.44
2018-12-25T09:40:30.852Z,-12.44
2018-12-25T09:43:03.912Z,-12.37
2018-12-25T09:45:37.068Z,-12.45
2018-12-25T09:48:13.414Z,-12.51
2018-12-25T09:50:44.930Z,-12.45
2018-12-25T09:53:17.967Z,-12.47
2018-12-25T09:55:50.949Z,-12.47
2018-12-25T09:58:25.005Z,-12.55
2018-12-25T10:00:58.062Z,-12.68
2018-12-25T10:03:31.236Z,-12.60
2018-12-25T10:06:04.251Z,-12.48
2018-12-25T10:08:37.364Z,-12.53
2018-12-25T10:11:10.432Z,-12.68
2018-12-25T10:13:43.492Z,-12.78
2018-12-25T10:16:16.417Z,-12.70
2018-12-25T10:18:49.584Z,-12.91
2018-12-25T10:21:22.344Z,-12.76
2018-12-25T10:23:56.338Z,-12.88
2018-12-25T10:26:29.577Z,-12.80
2018-12-25T10:29:02.703Z,-12.82
2018-12-25T10:31:39.669Z,-12.81
2018-12-25T10:34:19.702Z,-12.98
2018-12-25T10:37:09.617Z,-13.05
2018-12-25T10:39:43.658Z,-13.04
2018-12-25T10:42:16.724Z,-13.05
2018-12-25T10:44:49.871Z,-13.23
2018-12-25T10:47:23.230Z,-13.14
2018-12-25T10:49:56.323Z,-13.23
2018-12-25T10:52:29.345Z,-13.37
2018-12-25T10:55:02.421Z,-13.37
2018-12-25T10:57:35.496Z,-13.23
2018-12-25T11:00:13.747Z,-13.23
2018-12-25T11:02:47.037Z,-13.31
2018-12-25T11:05:20.569Z,-13.41
2018-12-25T11:07:53.756Z,-13.44
2018-12-25T11:10:26.811Z,-13.39
2018-12-25T11:12:59.888Z,-13.37
2018-12-25T11:15:33.016Z,-13.52
2018-12-25T11:18:06.241Z,-13.52
2018-12-25T11:20:39.311Z,-13.58
2018-12-25T11:23:12.312Z,-13.67
2018-12-25T11:25:46.222Z,-13.61
2018-12-25T11:28:19.463Z,-13.59
2018-12-25T11:30:52.401Z,-13.59
2018-12-25T11:33:25.509Z,-13.66
2018-12-25T11:35:58.639Z,-13.54
2018-12-25T11:38:31.642Z,-13.57
2018-12-25T11:41:05.311Z,-13.77
2018-12-25T11:43:38.674Z,-13.61
2018-12-25T11:46:11.637Z,-13.73
2018-12-25T11:48:44.762Z,-13.83
2018-12-25T11:51:17.759Z,-13.88
2018-12-25T11:53:50.729Z,-13.88
2018-12-25T11:56:23.837Z,-13.91
2018-12-25T11:58:56.821Z,-13.91
2018-12-25T12:01:33.815Z,-13.93
2018-12-25T12:04:06.857Z,-14.10
2018-12-25T12:06:40.154Z,-13.80
2018-12-25T12:09:13.318Z,-13.80
2018-12-25T12:11:46.457Z,-14.02
2018-12-25T12:14:19.527Z,-13.91
2018-12-25T12:16:52.580Z,-13.89
2018-12-25T12:19:25.540Z,-14.03
2018-12-25T12:21:58.913Z,-13.91
2018-12-25T12:24:32.615Z,-13.88
2018-12-25T12:27:05.756Z,-13.89
2018-12-25T12:29:38.727Z,-13.97
2018-12-25T12:32:12.751Z,-14.08
2018-12-25T12:34:45.795Z,-14.08
2018-12-25T12:37:18.898Z,-14.16
2018-12-25T12:39:51.992Z,-14.20
2018-12-25T12:42:25.419Z,-14.39
2018-12-25T12:44:58.876Z,-14.38
2018-12-25T12:47:31.920Z,-14.29
2018-12-25T12:50:05.921Z,-14.55
2018-12-25T12:52:45.396Z,-14.40
2018-12-25T12:55:13.168Z,-14.52
2018-12-25T12:57:46.208Z,-14.39
2018-12-25T13:00:19.327Z,-14.42
2018-12-25T13:02:52.350Z,-14.46
2018-12-25T13:05:25.597Z,-14.72
2018-12-25T13:07:58.648Z,-14.69
2018-12-25T13:10:31.703Z,-14.72
2018-12-25T13:13:04.756Z,-14.62
2018-12-25T13:15:37.868Z,-14.62
2018-12-25T13:18:10.967Z,-14.60
2018-12-25T13:20:44.238Z,-14.64
2018-12-25T13:23:17.702Z,-14.63
2018-12-25T13:25:51.171Z,-14.76
2018-12-25T13:28:24.810Z,-14.72
2018-12-25T13:30:57.448Z,-14.65
2018-12-25T13:33:30.623Z,-14.56
2018-12-25T13:36:03.916Z,-14.84
2018-12-25T13:38:36.988Z,-14.79
2018-12-25T13:41:10.454Z,-14.65
2018-12-25T13:43:43.467Z,-14.71
2018-12-25T13:46:16.543Z,-14.87
2018-12-25T13:48:50.006Z,-14.86
2018-12-25T13:51:22.944Z,-14.92
2018-12-25T13:53:55.790Z,-15.01
2018-12-25T13:56:28.780Z,-14.98
2018-12-25T13:59:01.805Z,-14.95
2018-12-25T14:01:34.702Z,-15.10
2018-12-25T14:04:07.804Z,-14.96
2018-12-25T14:06:40.800Z,-14.87
2018-12-25T14:09:13.971Z,-15.23
2018-12-25T14:11:46.980Z,-15.20
2018-12-25T14:14:20.223Z,-15.20
2018-12-25T14:16:53.244Z,-15.15
2018-12-25T14:19:26.600Z,-15.08
2018-12-25T14:21:59.793Z,-15.18
2018-12-25T14:24:32.907Z,-15.14
2018-12-25T14:27:05.927Z,-15.34
2018-12-25T14:29:38.922Z,-15.24
2018-12-25T14:32:11.523Z,-15.42
2018-12-25T14:34:44.434Z,-15.36
2018-12-25T14:37:17.400Z,-15.33
2018-12-25T14:39:50.414Z,-15.38
2018-12-25T14:42:23.493Z,-15.50
2018-12-25T14:44:56.426Z,-15.44
2018-12-25T14:47:29.480Z,-15.46
2018-12-25T14:50:02.480Z,-15.21
2018-12-25T14:52:35.963Z,-15.38
2018-12-25T14:55:08.773Z,-15.46
2018-12-25T14:57:41.698Z,-15.48
2018-12-25T15:00:15.225Z,-15.62
2018-12-25T15:02:48.365Z,-15.62
2018-12-25T15:05:21.484Z,-15.64
2018-12-25T15:07:54.605Z,-15.64
2018-12-25T15:10:27.597Z,-15.69
2018-12-25T15:13:00.913Z,-15.72
2018-12-25T15:15:34.035Z,-15.85
2018-12-25T15:18:06.975Z,-16.01
2018-12-25T15:20:39.794Z,-16.03
2018-12-25T15:23:12.847Z,-16.01
2018-12-25T15:25:45.840Z,-15.95
2018-12-25T15:28:18.724Z,-15.77
2018-12-25T15:30:51.586Z,-15.95
2018-12-25T15:33:24.598Z,-16.03
2018-12-25T15:35:57.885Z,-15.83
2018-12-25T15:38:30.785Z,-15.81
2018-12-25T15:41:03.961Z,-16.04
2018-12-25T15:43:36.906Z,-16.02
2018-12-25T15:46:09.671Z,-16.14
2018-12-25T15:48:42.255Z,-16.17
2018-12-25T15:51:15.357Z,-16.17
2018-12-25T15:53:50.392Z,-16.17
2018-12-25T15:56:23.176Z,-16.28
2018-12-25T15:58:56.343Z,-16.23
2018-12-25T16:01:29.258Z,-16.17
2018-12-25T16:04:02.332Z,-16.12
2018-12-25T16:06:35.288Z,-16.17
2018-12-25T16:09:09.481Z,-16.13
2018-12-25T16:11:42.575Z,-16.18
2018-12-25T16:14:15.578Z,-16.31
2018-12-25T16:16:48.511Z,-16.27
2018-12-25T16:19:21.447Z,-16.05
2018-12-25T16:21:54.482Z,-16.22
2018-12-25T16:24:27.782Z,-16.31
2018-12-25T16:27:02.691Z,-16.46
2018-12-25T16:29:35.738Z,-16.39
2018-12-25T16:32:08.937Z,-16.47
2018-12-25T16:34:41.594Z,-16.57
2018-12-25T16:37:14.707Z,-16.43
2018-12-25T16:39:47.889Z,-16.37
2018-12-25T16:42:21.011Z,-16.45
2018-12-25T16:44:54.136Z,-16.38
2018-12-25T16:47:27.627Z,-16.34
2018-12-25T16:50:00.660Z,-16.54
2018-12-25T16:52:33.978Z,-16.54
2018-12-25T16:55:07.082Z,-16.54
2018-12-25T16:57:40.218Z,-16.62
2018-12-25T17:00:13.347Z,-16.62
2018-12-25T17:02:46.981Z,-16.61
2018-12-25T17:05:20.213Z,-16.73
2018-12-25T17:07:53.576Z,-16.73
2018-12-25T17:10:26.891Z,-16.73
2018-12-25T17:12:59.853Z,-16.73
2018-12-25T17:15:32.785Z,-16.73
2018-12-25T17:18:05.917Z,-16.73
2018-12-25T17:20:38.880Z,-16.63
2018-12-25T17:23:11.954Z,-16.58
2018-12-25T17:25:45.812Z,-16.81
2018-12-25T17:28:18.799Z,-16.67
2018-12-25T17:30:51.895Z,-16.67
2018-12-25T17:33:24.859Z,-16.76
2018-12-25T17:35:58.214Z,-16.94
2018-12-25T17:38:31.460Z,-16.94
2018-12-25T17:41:07.801Z,-16.97
2018-12-25T17:43:40.946Z,-16.97
2018-12-25T17:46:14.492Z,-17.09
2018-12-25T17:49:16.695Z,-17.09
2018-12-25T17:51:50.320Z,-16.96
2018-12-25T17:54:23.464Z,-16.96
2018-12-25T17:57:56.597Z,-17.03
2018-12-25T18:00:34.184Z,-17.03
2018-12-25T18:03:07.535Z,-16.99
2018-12-25T18:05:41.060Z,-17.08
2018-12-25T18:08:14.206Z,-16.93
2018-12-25T18:10:47.192Z,-16.93
2018-12-25T18:13:20.210Z,-16.77
2018-12-25T18:15:53.320Z,-16.95
2018-12-25T18:18:26.782Z,-17.25
2018-12-25T18:20:59.992Z,-17.25
2018-12-25T18:23:33.087Z,-17.20
2018-12-25T18:26:06.189Z,-17.07
2018-12-25T18:28:39.328Z,-17.00
2018-12-25T18:31:12.372Z,-17.02
2018-12-25T18:33:45.546Z,-16.99
2018-12-25T18:36:18.547Z,-17.12
2018-12-25T18:38:51.783Z,-16.86
2018-12-25T18:41:26.649Z,-16.86
2018-12-25T18:46:50.593Z,-17.29
2018-12-25T18:49:23.632Z,-17.02
2018-12-25T18:51:56.882Z,-17.26
2018-12-25T18:54:30.167Z,-17.29
2018-12-25T18:57:22.235Z,-17.13
2018-12-25T18:59:55.302Z,-17.33
2018-12-25T19:02:28.676Z,-17.30
2018-12-25T19:05:01.536Z,-17.30
2018-12-25T19:07:34.855Z,-17.14
2018-12-25T19:10:09.919Z,-17.15
2018-12-25T19:12:43.191Z,-17.27
2018-12-25T19:15:24.003Z,-17.26
2018-12-25T19:17:57.025Z,-17.28
2018-12-25T19:20:31.050Z,-17.51
2018-12-25T19:23:04.555Z,-17.45
2018-12-25T19:25:37.798Z,-17.63
2018-12-25T19:28:20.515Z,-17.45
2018-12-25T19:30:56.637Z,-17.47
2018-12-25T19:33:29.770Z,-17.37
2018-12-25T19:38:44.891Z,-17.50
2018-12-25T19:41:18.037Z,-17.39
2018-12-25T19:43:51.228Z,-17.59
2018-12-25T19:46:24.631Z,-17.71
2018-12-25T19:48:57.705Z,-17.50
2018-12-25T19:51:32.616Z,-17.63
2018-12-25T19:54:05.486Z,-17.79
2018-12-25T19:56:46.213Z,-17.64
2018-12-25T19:59:19.303Z,-17.62
2018-12-25T20:01:52.376Z,-17.78
2018-12-25T20:04:28.206Z,-17.86
2018-12-25T20:07:37.394Z,-17.75
2018-12-25T20:10:45.234Z,-17.53
2018-12-25T20:13:46.609Z,-17.74
2018-12-25T20:16:34.640Z,-17.83
2018-12-25T20:19:18.927Z,-17.70
2018-12-25T20:22:23.009Z,-17.93
2018-12-25T20:25:20.039Z,-17.89
2018-12-25T20:28:28.992Z,-17.72
2018-12-25T20:31:30.182Z,-17.93
2018-12-25T20:34:21.242Z,-17.84
2018-12-25T20:37:34.786Z,-17.81
2018-12-25T20:40:39.094Z,-17.83
2018-12-25T20:43:36.107Z,-17.72
2018-12-25T20:47:01.292Z,-17.68
2018-12-25T20:50:03.159Z,-17.67
2018-12-25T20:53:17.913Z,-17.81
2018-12-25T20:59:19.711Z,-18.04
2018-12-25T21:02:19.381Z,-18.10
2018-12-25T21:05:19.113Z,-18.05
2018-12-25T21:08:09.792Z,-18.07
2018-12-25T21:11:28.672Z,-17.97
2018-12-25T21:14:42.644Z,-17.93
2018-12-25T21:17:32.528Z,-18.13
2018-12-25T21:20:32.441Z,-18.14
2018-12-25T21:23:57.668Z,-18.01
2018-12-25T21:27:23.003Z,-18.07
2018-12-25T21:29:56.260Z,-18.13
2018-12-25T21:32:30.081Z,-18.19
2018-12-25T21:38:17.066Z,-18.07
2018-12-25T21:40:50.386Z,-18.10
2018-12-25T21:43:23.787Z,-18.03
2018-12-25T21:45:57.332Z,-18.17
2018-12-25T21:48:30.739Z,-18.10
2018-12-25T21:51:07.274Z,-17.98
2018-12-25T21:53:43.954Z,-17.87
2018-12-25T21:56:17.407Z,-18.05
2018-12-25T21:58:50.451Z,-18.04
2018-12-25T22:01:24.798Z,-18.22
2018-12-25T22:03:58.036Z,-18.27
2018-12-25T22:06:32.779Z,-18.14
2018-12-25T22:09:06.753Z,-18.44
2018-12-25T22:11:39.801Z,-18.46
2018-12-25T22:14:15.793Z,-18.40
2018-12-25T22:16:50.019Z,-18.33
2018-12-25T22:19:23.040Z,-18.35
2018-12-25T22:21:56.278Z,-18.41
2018-12-25T22:24:29.592Z,-18.35
2018-12-25T22:27:02.883Z,-18.31
2018-12-25T22:29:36.353Z,-18.45
2018-12-25T22:32:09.994Z,-18.38
2018-12-25T22:34:43.224Z,-18.25
2018-12-25T22:37:16.209Z,-18.37
2018-12-25T22:39:49.466Z,-18.43
2018-12-25T22:42:22.659Z,-18.51
2018-12-25T22:44:55.604Z,-18.54
2018-12-25T22:47:28.561Z,-18.69
2018-12-25T22:50:01.597Z,-18.69
2018-12-25T22:52:34.496Z,-18.74
2018-12-25T22:55:08.915Z,-18.85
2018-12-25T22:57:42.581Z,-18.67
2018-12-25T23:00:15.904Z,-18.64
2018-12-25T23:02:48.969Z,-18.70
2018-12-25T23:05:22.009Z,-18.83
2018-12-25T23:07:55.177Z,-18.83
2018-12-25T23:10:28.343Z,-18.72
2018-12-25T23:13:01.478Z,-18.54
2018-12-25T23:15:34.924Z,-18.79
2018-12-25T23:18:08.138Z,-18.69
2018-12-25T23:20:41.704Z,-18.77
2018-12-25T23:23:14.914Z,-18.82
2018-12-25T23:25:48.104Z,-18.75
2018-12-25T23:28:21.186Z,-18.69
2018-12-25T23:30:54.679Z,-18.68
2018-12-25T23:33:27.637Z,-18.80
2018-12-25T23:36:01.986Z,-18.55
2018-12-25T23:38:35.204Z,-18.55
2018-12-25T23:41:08.203Z,-18.67
2018-12-25T23:43:41.092Z,-18.85
2018-12-25T23:46:14.059Z,-18.72
2018-12-25T23:48:46.964Z,-18.68
2018-12-25T23:51:20.401Z,-18.68
2018-12-25T23:53:53.585Z,-18.48
2018-12-25T23:56:27.357Z,-18.53
2018-12-25T23:59:00.617Z,-18.53
